• Join FlightAware (Why Join?)
  • Login
  • US Flag 
02:22AM EDT


 

Airport Tracker/Info


-or-


 

Live Flight TrackerFlight Track Log ✈ BJS439 ✈ 14-Apr-2013 ✈ KLAL - KPBI

Flight Track Log - Related Links

Times and Time Zones

All times are in EDT time to prevent confusion due to time zone crossing. See the BJS439 flight status page for this flight to view local times or setup timezone preferences in your user account.

Time Position Orientation Groundspeed Altitude Reporting Facility
EDT Latitude Longitude Course Direction KTS MPH feet Rate Location/Type
07:09PM 27.9833 -82.0500 270° West 175 201 1,700  Level Tampa TRACON
07:10PM 27.9167 -82.0500 180° South 226 260 2,900 1,200 Climbing Tampa TRACON
07:11PM 27.8667 -82.0333 164° South 247 284 4,000 900 Climbing Tampa TRACON
07:11PM 27.8444 -82.0297 172° South 251 289 4,000 120 Level Miami Center
07:12PM 27.7881 -81.9778 141° Southeast 233 268 4,200 1,680 Climbing Miami Center
07:13PM 27.7272 -81.9236 142° Southeast 265 305 7,400 3,000 Climbing Miami Center
07:14PM 27.6708 -81.8625 136° Southeast 278 320 10,300 3,300 Climbing Miami Center
07:15PM 27.6150 -81.7944 133° Southeast 307 353 14,100 3,000 Climbing Miami Center
07:16PM 27.5428 -81.7072 133° Southeast 351 404 16,300 1,440 Climbing Miami Center
07:17PM 27.4667 -81.6125 132° Southeast 383 441 17,000 300 Climbing Miami Center
07:18PM 27.3881 -81.5206 134° Southeast 402 463 17,000  Level Miami Center
07:19PM 27.3139 -81.4311 133° Southeast 402 463 17,000  Level Miami Center
07:20PM 27.2372 -81.3392 133° Southeast 402 463 17,000  Level Miami Center
07:21PM 27.1547 -81.2381 133° Southeast 407 468 17,000 -300 Level Miami Center
07:22PM 27.0803 -81.1467 132° Southeast 402 463 16,500 -1,260 Descending Miami Center
07:23PM 27.0197 -81.0744 133° Southeast 402 463 14,500 -2,280 Descending Miami Center
07:24PM 26.9450 -80.9856 133° Southeast 371 427 12,000 -2,220 Descending Miami Center
07:25PM 26.8806 -80.9067 132° Southeast 337 388 10,100 -1,020 Descending Miami Center
07:26PM 26.8283 -80.8325 128° Southeast 299 344 10,000 -60 Descending Miami Center
07:27PM 26.7972 -80.7456 112° Southeast 294 338 10,000 -480 Level Miami Center
07:28PM 26.7642 -80.6583 113° Southeast 301 346 9,100 -1,380 Descending Miami Center
07:29PM 26.7389 -80.5831 111° Southeast 295 339 7,300 -1,980 Descending Miami Center
07:30PM 26.7056 -80.4983 114° Southeast 278 320 5,200 -1,800 Descending Miami Center
07:31PM 26.6947 -80.4283 100° East 264 304 3,700 -1,140 Descending Miami Center
07:32PM 26.6903 -80.3492 94° East 248 285 3,000 -780 Descending Miami Center
07:33PM 26.6894 -80.2978 91° East 198 228 2,200 -540 Descending Miami Center
07:34PM 26.6867 -80.2397 93° East 178 205 2,000 -240 Descending Miami Center
07:36PM 26.6841 -80.1324 53° Northeast  Level Estimated
07:43PM 26.6832 -80.0956 50° Northeast  Level Estimated
07:44PM 26.6832 -80.0956 50° Northeast  Level Estimated
07:45PM 26.6832 -80.0956 50° Northeast  Level Estimated
07:46PM 26.6832 -80.0956 50° Northeast  Level Estimated